createdAt,value
2023-04-06T00:00:45.448Z,75.5
2023-04-06T00:02:01.000Z,75.6
2023-04-06T00:03:17.834Z,75.7
2023-04-06T00:04:16.010Z,75.6
2023-04-06T00:05:50.000Z,75.7
2023-04-06T00:06:48.401Z,75.4
2023-04-06T00:08:22.606Z,75.6
2023-04-06T00:09:20.791Z,75.5
2023-04-06T00:10:55.006Z,75.6
2023-04-06T00:11:52.198Z,75.6
2023-04-06T00:13:26.000Z,75.6
2023-04-06T00:14:42.000Z,75.8
2023-04-06T00:15:40.784Z,75.6
2023-04-06T00:17:14.987Z,75.6
2023-04-06T00:18:31.000Z,75.6
2023-04-06T00:19:29.370Z,75.5
2023-04-06T00:21:03.000Z,75.7
2023-04-06T00:22:01.760Z,75.6
2023-04-06T00:23:35.000Z,75.6
2023-04-06T00:24:34.150Z,75.6
2023-04-06T00:25:50.346Z,75.7
2023-04-06T00:27:24.000Z,75.9
2023-04-06T00:28:40.000Z,76.1
2023-04-06T00:29:56.958Z,75.7
2023-04-06T00:31:12.153Z,75.6
2023-04-06T00:32:28.365Z,75.9
2023-04-06T00:33:44.535Z,75.8
2023-04-06T00:34:42.730Z,75.8
2023-04-06T00:36:16.000Z,75.7
2023-04-06T00:37:15.120Z,75.7
2023-04-06T00:38:49.332Z,75.8
2023-04-06T00:40:04.000Z,76
2023-04-06T00:41:02.729Z,75.8
2023-04-06T00:42:36.933Z,75.8
2023-04-06T00:43:53.000Z,76
2023-04-06T00:45:09.323Z,75.7
2023-04-06T00:46:07.509Z,75.6
2023-04-06T00:47:41.000Z,76
2023-04-06T00:48:57.000Z,75.5
2023-04-06T00:50:14.000Z,75.4
2023-04-06T00:51:30.000Z,75.3
2023-04-06T00:52:46.000Z,75.2
2023-04-06T00:54:02.000Z,75.3
2023-04-06T00:55:00.876Z,75.3
2023-04-06T00:56:34.106Z,75.2
2023-04-06T00:57:32.284Z,75.2
2023-04-06T00:59:06.000Z,75.1
2023-04-06T01:00:04.674Z,75.2
2023-04-06T01:01:38.000Z,75.3
2023-04-06T01:02:55.076Z,75.1
2023-04-06T01:04:11.284Z,75
2023-04-06T01:05:27.000Z,75.3
2023-04-06T01:06:43.000Z,75.2
2023-04-06T01:07:59.000Z,75.4
2023-04-06T01:08:58.041Z,75.5
2023-04-06T01:10:14.237Z,75.5
2023-04-06T01:12:13.000Z,75.3
2023-04-06T01:13:04.000Z,75.2
2023-04-06T01:14:20.000Z,74.8
2023-04-06T01:15:19.020Z,74.9
2023-04-06T01:16:52.233Z,75
2023-04-06T01:18:08.428Z,75.2
2023-04-06T01:19:06.623Z,75.7
2023-04-06T01:20:40.833Z,75.4
2023-04-06T01:21:57.000Z,75.3
2023-04-06T01:22:55.210Z,75.8
2023-04-06T01:24:29.406Z,75.6
2023-04-06T01:25:27.600Z,75.5
2023-04-06T01:27:01.814Z,75.6
2023-04-06T01:27:59.991Z,75.7
2023-04-06T01:29:34.200Z,76
2023-04-06T01:30:50.000Z,76.1
2023-04-06T01:32:06.000Z,76.3
2023-04-06T01:33:03.789Z,76.2
2023-04-06T01:34:38.000Z,76.2
2023-04-06T01:35:36.180Z,76.4
2023-04-06T01:37:10.000Z,76.4
2023-04-06T01:38:08.571Z,76.7
2023-04-06T01:39:42.785Z,76.8
2023-04-06T01:40:40.960Z,76.7
2023-04-06T01:41:57.153Z,76.7
2023-04-06T01:43:31.347Z,76.8
2023-04-06T01:44:47.553Z,76.9
2023-04-06T01:46:03.000Z,76.9
2023-04-06T01:47:19.000Z,76.9
2023-04-06T01:48:18.122Z,77
2023-04-06T01:49:52.331Z,77.3
2023-04-06T01:50:49.525Z,78
2023-04-06T01:52:23.000Z,78.3
2023-04-06T01:53:39.934Z,77.8
2023-04-06T01:54:38.107Z,78
2023-04-06T01:56:12.000Z,78.4
2023-04-06T01:57:28.000Z,78.3
2023-04-06T01:58:26.688Z,77.8
2023-04-06T02:00:00.000Z,77.7
2023-04-06T02:00:59.075Z,77.7
2023-04-06T02:02:58.000Z,77.9
2023-04-06T02:03:31.462Z,78
2023-04-06T02:05:05.662Z,78.2
2023-04-06T02:06:03.849Z,78.3
2023-04-06T02:07:38.000Z,78.3
2023-04-06T02:08:54.236Z,78.1
2023-04-06T02:10:10.439Z,78.2
2023-04-06T02:11:07.639Z,78.1
2023-04-06T02:12:41.854Z,78.3
2023-04-06T02:13:40.028Z,78.5
2023-04-06T02:15:14.000Z,78.1
2023-04-06T02:16:12.415Z,78.2
2023-04-06T02:18:11.000Z,77.9
2023-04-06T02:19:02.827Z,77.7
2023-04-06T02:20:19.017Z,77.6
2023-04-06T02:21:35.000Z,77.6
2023-04-06T02:22:51.000Z,77.6
2023-04-06T02:23:49.577Z,77.6
2023-04-06T02:25:05.771Z,77.6
2023-04-06T02:26:39.978Z,77.7
2023-04-06T02:27:55.000Z,77.6
2023-04-06T02:28:53.369Z,77.5
2023-04-06T02:30:27.000Z,77.7
2023-04-06T02:31:25.756Z,77.8
2023-04-06T02:32:59.958Z,77.9
2023-04-06T02:34:16.143Z,78.3
2023-04-06T02:35:14.337Z,78.2
2023-04-06T02:36:30.530Z,78
2023-04-06T02:38:04.000Z,78.3
2023-04-06T02:39:45.000Z,78.4
2023-04-06T02:40:37.111Z,78.4
2023-04-06T02:41:53.317Z,78.2
2023-04-06T02:42:51.498Z,78.6
2023-04-06T02:44:24.000Z,78.3
2023-04-06T02:45:40.902Z,78
2023-04-06T02:46:57.000Z,78.2
2023-04-06T02:48:13.312Z,78
2023-04-06T02:49:11.483Z,78.2
2023-04-06T02:51:10.000Z,78
2023-04-06T02:51:43.872Z,78
2023-04-06T02:53:18.000Z,77.6
2023-04-06T02:54:34.274Z,77.8
2023-04-06T02:55:50.475Z,77.8
2023-04-06T02:56:48.647Z,77.8
2023-04-06T02:58:47.000Z,78
2023-04-06T02:59:39.000Z,78.1
2023-04-06T03:00:55.000Z,78.3
2023-04-06T03:01:53.423Z,78.5
2023-04-06T03:03:26.652Z,78.4
2023-04-06T03:04:42.841Z,78.4
2023-04-06T03:05:41.020Z,78.7
2023-04-06T03:06:57.214Z,78.6
2023-04-06T03:08:31.000Z,78.5
2023-04-06T03:09:47.609Z,78.5
2023-04-06T03:10:45.795Z,78.6
2023-04-06T03:12:19.989Z,78.6
2023-04-06T03:13:36.201Z,78.6
2023-04-06T03:14:52.387Z,78.6
2023-04-06T03:16:08.000Z,78.8
2023-04-06T03:17:06.764Z,78.8
2023-04-06T03:18:22.957Z,79.1
2023-04-06T03:19:39.151Z,79.2
2023-04-06T03:21:12.388Z,79.4
2023-04-06T03:22:28.555Z,79.5
2023-04-06T03:23:44.761Z,80
2023-04-06T03:25:00.000Z,80
2023-04-06T03:26:17.149Z,80.2
2023-04-06T03:27:33.352Z,80.5
2023-04-06T03:28:49.550Z,81.1
2023-04-06T03:29:47.718Z,81.3
2023-04-06T03:31:21.000Z,81.2
2023-04-06T03:32:20.106Z,81.3
2023-04-06T03:33:54.319Z,81.9
2023-04-06T03:34:52.494Z,82.4
2023-04-06T03:36:26.000Z,82.7
2023-04-06T03:37:42.882Z,82
2023-04-06T03:38:59.075Z,82.2
2023-04-06T03:39:57.269Z,82.2
2023-04-06T03:41:30.503Z,82.3
2023-04-06T03:42:46.693Z,82
2023-04-06T03:44:02.000Z,82
2023-04-06T03:45:19.080Z,82.3
2023-04-06T03:46:35.254Z,82.3
2023-04-06T03:48:16.000Z,82.5
2023-04-06T03:49:07.664Z,82.3
2023-04-06T03:50:23.000Z,82.4
2023-04-06T03:51:40.000Z,82.8
2023-04-06T03:52:38.223Z,82.8
2023-04-06T03:54:12.416Z,82.5
2023-04-06T03:55:10.610Z,82.4
2023-04-06T03:56:44.816Z,82.4
2023-04-06T03:58:00.000Z,82.4
2023-04-06T03:59:16.219Z,82.6
2023-04-06T04:00:14.401Z,82.7
2023-04-06T04:01:48.000Z,82.8
2023-04-06T04:03:04.000Z,82.9
2023-04-06T04:04:45.000Z,82.9
2023-04-06T04:05:37.197Z,83
2023-04-06T04:06:35.371Z,83.1
2023-04-06T04:08:09.573Z,83.3
2023-04-06T04:09:25.758Z,83.2
2023-04-06T04:10:41.000Z,83.1
2023-04-06T04:11:58.000Z,83.1
2023-04-06T04:12:56.339Z,83.2
2023-04-06T04:14:30.674Z,83.3
2023-04-06T04:15:46.000Z,83.1
2023-04-06T04:17:03.041Z,83.1
2023-04-06T04:18:01.235Z,83.2
2023-04-06T04:19:17.429Z,83.3
2023-04-06T04:20:33.622Z,83.5
2023-04-06T04:22:07.828Z,83.7
2023-04-06T04:23:06.010Z,83.8
2023-04-06T04:24:40.000Z,84
2023-04-06T04:25:38.397Z,84.5
2023-04-06T04:26:54.590Z,84.5
2023-04-06T04:28:28.000Z,84
2023-04-06T04:29:26.978Z,83.6
2023-04-06T04:31:00.204Z,83.9
2023-04-06T04:32:16.000Z,83.7
2023-04-06T04:33:14.575Z,83.3
2023-04-06T04:34:48.768Z,83.2
2023-04-06T04:35:46.962Z,83.2
2023-04-06T04:37:21.171Z,83.1
2023-04-06T04:38:37.000Z,83.1
2023-04-06T04:39:53.000Z,83.1
2023-04-06T04:41:09.000Z,83.1
2023-04-06T04:42:25.943Z,83.1
2023-04-06T04:43:24.125Z,83.2
2023-04-06T04:44:58.000Z,83.5
2023-04-06T04:45:56.513Z,83.5
2023-04-06T04:47:29.000Z,83.7
2023-04-06T04:48:27.916Z,83.9
2023-04-06T04:50:02.000Z,83.9
2023-04-06T04:51:18.314Z,84.2
2023-04-06T04:52:16.497Z,85.2
2023-04-06T04:53:50.000Z,85.6
2023-04-06T04:55:06.901Z,86.2
2023-04-06T04:56:04.099Z,86.3
2023-04-06T04:58:03.000Z,86.3
2023-04-06T04:58:36.487Z,85.8
2023-04-06T05:00:10.691Z,85.5
2023-04-06T05:01:08.874Z,85.4
2023-04-06T05:02:43.092Z,84.7
2023-04-06T05:03:59.000Z,84.5
2023-04-06T05:05:15.468Z,84.3
2023-04-06T05:06:31.650Z,84.1
2023-04-06T05:07:47.861Z,83.9
2023-04-06T05:09:04.067Z,83.7
2023-04-06T05:10:20.000Z,83.7
2023-04-06T05:11:36.447Z,83.7
2023-04-06T05:12:51.000Z,83.3
2023-04-06T05:14:07.846Z,83.5
2023-04-06T05:15:24.048Z,84.2
2023-04-06T05:16:22.217Z,83.6
2023-04-06T05:17:56.439Z,83
2023-04-06T05:19:12.604Z,82.7
2023-04-06T05:20:28.813Z,82.5
2023-04-06T05:21:26.992Z,82.4
2023-04-06T05:23:01.196Z,82.4
2023-04-06T05:24:17.000Z,82.4
2023-04-06T05:25:33.573Z,82.5
2023-04-06T05:26:31.767Z,82.3
2023-04-06T05:28:05.000Z,82.5
2023-04-06T05:29:03.167Z,82.5
2023-04-06T05:30:37.388Z,82
2023-04-06T05:31:53.000Z,81.6
2023-04-06T05:33:09.000Z,81.5
2023-04-06T05:34:07.943Z,81.5
2023-04-06T05:35:42.000Z,81.4
2023-04-06T05:36:40.331Z,81.3
2023-04-06T05:38:14.000Z,81.1
2023-04-06T05:39:12.718Z,81.2
2023-04-06T05:40:46.000Z,81.9
2023-04-06T05:41:45.105Z,81.8
2023-04-06T05:43:19.299Z,81.8
2023-04-06T05:44:35.000Z,81.7
2023-04-06T05:45:51.706Z,81.3
2023-04-06T05:47:07.000Z,81.3
2023-04-06T05:48:24.094Z,81.1
2023-04-06T05:49:21.283Z,80.9
2023-04-06T05:50:55.496Z,81.7
2023-04-06T05:51:53.670Z,81.3
2023-04-06T05:53:27.880Z,80.7
2023-04-06T05:54:26.057Z,80.3
2023-04-06T05:56:00.250Z,80.1
2023-04-06T05:57:16.000Z,80
2023-04-06T05:58:32.000Z,79.8
2023-04-06T05:59:30.829Z,79.7
2023-04-06T06:01:30.000Z,79.5
2023-04-06T06:02:03.216Z,79.2
2023-04-06T06:03:37.409Z,79.1
2023-04-06T06:05:18.000Z,79.1
2023-04-06T06:06:09.807Z,78.9
2023-04-06T06:07:07.988Z,78.8
2023-04-06T06:08:42.200Z,79.2
2023-04-06T06:09:58.374Z,78.9
2023-04-06T06:11:14.000Z,78.6
2023-04-06T06:12:12.761Z,78.5
2023-04-06T06:13:45.993Z,78.3
2023-04-06T06:14:44.163Z,78.4
2023-04-06T06:16:18.356Z,77.8
2023-04-06T06:17:34.579Z,78
2023-04-06T06:18:50.000Z,77.8
2023-04-06T06:20:06.950Z,76.7
2023-04-06T06:21:23.000Z,77
2023-04-06T06:22:39.000Z,77
2023-04-06T06:23:37.516Z,77
2023-04-06T06:24:53.709Z,76.7
2023-04-06T06:26:27.000Z,76.4
2023-04-06T06:27:44.122Z,76.3
2023-04-06T06:29:00.303Z,76
2023-04-06T06:29:58.482Z,76.6
2023-04-06T06:31:32.000Z,76.2
2023-04-06T06:32:30.989Z,76.6
2023-04-06T06:34:05.000Z,76.7
2023-04-06T06:35:21.000Z,76.6
2023-04-06T06:36:37.580Z,76.3
2023-04-06T06:37:35.761Z,75.6
2023-04-06T06:39:34.000Z,74.8
2023-04-06T06:40:26.158Z,74.6
2023-04-06T06:41:42.370Z,74.1
2023-04-06T06:42:58.545Z,74
2023-04-06T06:44:14.000Z,74.1
2023-04-06T06:45:12.920Z,73.9
2023-04-06T06:46:29.112Z,73.3
2023-04-06T06:48:02.000Z,73.3
2023-04-06T06:49:18.000Z,73.6
2023-04-06T06:50:34.729Z,73.6
2023-04-06T06:51:50.925Z,73.5
2023-04-06T06:52:49.094Z,72.6
2023-04-06T06:54:23.000Z,72.5
2023-04-06T06:55:39.499Z,72.4
2023-04-06T06:56:55.000Z,72
2023-04-06T06:57:53.866Z,72.4
2023-04-06T06:59:28.070Z,72
2023-04-06T07:00:44.000Z,72.1
2023-04-06T07:02:00.446Z,72.3
2023-04-06T07:02:58.639Z,72.1
2023-04-06T07:04:31.000Z,71.8
2023-04-06T07:05:30.041Z,71.3
2023-04-06T07:07:04.000Z,70.9
2023-04-06T07:08:20.427Z,71
2023-04-06T07:09:36.620Z,71.4
2023-04-06T07:10:52.000Z,71.4
2023-04-06T07:12:09.000Z,71
2023-04-06T07:13:25.000Z,70.3
2023-04-06T07:14:41.408Z,70.6
2023-04-06T07:15:39.585Z,70
2023-04-06T07:17:13.798Z,69.7
2023-04-06T07:18:11.971Z,69.5
2023-04-06T07:19:46.000Z,69.3
2023-04-06T07:20:44.358Z,68.9
2023-04-06T07:22:18.567Z,69
2023-04-06T07:23:15.760Z,68.6
2023-04-06T07:24:49.000Z,68.7
2023-04-06T07:26:06.000Z,68.6
2023-04-06T07:27:22.000Z,68.4
2023-04-06T07:28:20.534Z,68.5
2023-04-06T07:29:54.746Z,68.6
2023-04-06T07:30:52.921Z,68.2
2023-04-06T07:32:27.138Z,67.5
2023-04-06T07:33:25.307Z,67.6
2023-04-06T07:34:59.000Z,67.3
2023-04-06T07:35:57.694Z,67.3
2023-04-06T07:37:31.000Z,67.2
2023-04-06T07:38:48.000Z,66.7
2023-04-06T07:40:04.294Z,66.6
2023-04-06T07:41:01.483Z,66.6
2023-04-06T07:42:35.000Z,65.8
2023-04-06T07:43:33.870Z,65.4
2023-04-06T07:45:08.086Z,65.3
2023-04-06T07:46:06.256Z,65.4
2023-04-06T07:47:40.000Z,65.5
2023-04-06T07:48:38.643Z,65.9
2023-04-06T07:50:12.000Z,64.9
2023-04-06T07:51:29.000Z,65.3
2023-04-06T07:53:10.000Z,65.5
2023-04-06T07:54:01.436Z,65.1
2023-04-06T07:55:17.620Z,65
2023-04-06T07:56:33.829Z,64.7
2023-04-06T07:57:50.000Z,63.5
2023-04-06T07:59:06.000Z,62.5
2023-04-06T08:00:22.394Z,62.7
2023-04-06T08:01:37.000Z,62.5
2023-04-06T08:02:53.000Z,62.3
2023-04-06T08:04:09.977Z,61.8
2023-04-06T08:05:26.170Z,61.8
2023-04-06T08:06:42.392Z,61.9
2023-04-06T08:07:58.557Z,61.9
2023-04-06T08:09:14.773Z,62.1
2023-04-06T08:10:12.943Z,62.2
2023-04-06T08:11:47.151Z,61.4
2023-04-06T08:13:03.000Z,61.2
2023-04-06T08:14:01.523Z,60.6
2023-04-06T08:15:35.000Z,60.9
2023-04-06T08:16:51.000Z,60.7
2023-04-06T08:17:50.104Z,60.3
2023-04-06T08:19:06.298Z,59.7
2023-04-06T08:20:39.000Z,59.7
2023-04-06T08:21:55.715Z,59.4
2023-04-06T08:23:11.913Z,59.7
2023-04-06T08:24:10.087Z,60.4
2023-04-06T08:25:44.000Z,60.1
2023-04-06T08:27:00.000Z,59.4
2023-04-06T08:28:16.000Z,59.2
2023-04-06T08:29:32.000Z,58.8
2023-04-06T08:30:49.000Z,58.9
2023-04-06T08:32:05.264Z,59.9
2023-04-06T08:33:21.470Z,60.5
2023-04-06T08:34:37.648Z,60.5
2023-04-06T08:35:53.000Z,61.1
2023-04-06T08:36:52.020Z,60.1
2023-04-06T08:38:07.230Z,59.9
2023-04-06T08:39:23.423Z,58.6
2023-04-06T08:41:22.000Z,58.1
2023-04-06T08:42:13.810Z,59
2023-04-06T08:43:30.003Z,58
2023-04-06T08:44:46.208Z,57.4
2023-04-06T08:46:02.421Z,57.7
2023-04-06T08:47:18.595Z,58.2
2023-04-06T08:48:34.791Z,56.6
2023-04-06T08:49:32.970Z,56.2
2023-04-06T08:51:07.000Z,56.3
2023-04-06T08:52:05.358Z,56.1
2023-04-06T08:53:39.000Z,55.2
2023-04-06T08:54:55.000Z,54.8
2023-04-06T08:56:11.000Z,54.6
2023-04-06T08:57:10.131Z,54.1
2023-04-06T08:58:44.000Z,53.7
2023-04-06T08:59:42.518Z,53.6
2023-04-06T09:01:16.724Z,54.1
2023-04-06T09:02:13.921Z,53.3
2023-04-06T09:03:48.138Z,52.3
2023-04-06T09:04:46.308Z,52
2023-04-06T09:06:20.000Z,51.9
2023-04-06T09:07:36.000Z,52.1
2023-04-06T09:08:52.000Z,52.9
2023-04-06T09:09:51.081Z,52.5
2023-04-06T09:11:24.000Z,53.5
2023-04-06T09:12:22.490Z,53.8
2023-04-06T09:13:56.707Z,53.2
2023-04-06T09:15:12.890Z,52.8
2023-04-06T09:16:29.083Z,52.8
2023-04-06T09:17:27.264Z,52.2
2023-04-06T09:19:01.000Z,51.8
2023-04-06T09:20:17.000Z,51
2023-04-06T09:21:33.000Z,51.2
2023-04-06T09:22:32.036Z,51.7
2023-04-06T09:24:06.000Z,51.4
2023-04-06T09:25:22.434Z,51.2
2023-04-06T09:26:38.646Z,51.7
2023-04-06T09:27:53.000Z,52
2023-04-06T09:29:10.000Z,51.6
2023-04-06T09:30:08.212Z,51.5
2023-04-06T09:31:42.426Z,51.5
2023-04-06T09:32:58.598Z,51.3
2023-04-06T09:34:14.820Z,50.6
2023-04-06T09:35:12.984Z,50.1
2023-04-06T09:36:47.000Z,49.9
2023-04-06T09:37:45.370Z,49.9
2023-04-06T09:39:19.000Z,50.2
2023-04-06T09:40:17.756Z,49.5
2023-04-06T09:41:51.949Z,50.6
2023-04-06T09:42:50.142Z,50.9
2023-04-06T09:44:24.457Z,50.3
2023-04-06T09:45:40.000Z,49.9
2023-04-06T09:46:56.000Z,50.2
2023-04-06T09:47:55.036Z,49.7
2023-04-06T09:49:29.259Z,49.6
2023-04-06T09:50:27.422Z,48.2
2023-04-06T09:52:01.000Z,47.2
2023-04-06T09:53:42.000Z,48.3
2023-04-06T09:54:34.028Z,47.7
2023-04-06T09:55:32.194Z,47.3
2023-04-06T09:57:06.388Z,46.3
2023-04-06T09:58:22.000Z,46.6
2023-04-06T09:59:38.774Z,46.3
2023-04-06T10:00:54.998Z,46.7
2023-04-06T10:02:10.000Z,48.5
2023-04-06T10:03:08.369Z,49.6
2023-04-06T10:04:24.562Z,50.4
2023-04-06T10:05:40.755Z,48.9
2023-04-06T10:07:14.000Z,47.7
2023-04-06T10:08:13.140Z,46.8
2023-04-06T10:09:47.000Z,46.7
2023-04-06T10:11:03.000Z,45.6
2023-04-06T10:12:44.000Z,44.8
2023-04-06T10:13:17.912Z,44.1
2023-04-06T10:14:52.000Z,44.1
2023-04-06T10:16:08.314Z,44.8
2023-04-06T10:17:24.517Z,44.4
2023-04-06T10:18:40.000Z,43.4
2023-04-06T10:19:56.905Z,43.8
2023-04-06T10:21:12.000Z,44.4
2023-04-06T10:22:28.279Z,43.1
2023-04-06T10:23:44.472Z,43.3
2023-04-06T10:25:25.000Z,43.3
2023-04-06T10:25:58.858Z,44.1
2023-04-06T10:27:33.000Z,43
2023-04-06T10:28:49.000Z,43.3
2023-04-06T10:30:05.437Z,42.5
2023-04-06T10:31:03.630Z,43.1
2023-04-06T10:32:37.850Z,41.4
2023-04-06T10:33:36.016Z,41.6
2023-04-06T10:35:35.000Z,41.5
2023-04-06T10:36:26.000Z,42.5
2023-04-06T10:37:42.000Z,42.3
2023-04-06T10:38:58.808Z,43.1
2023-04-06T10:40:14.000Z,42.8
2023-04-06T10:41:30.220Z,41.7
2023-04-06T10:42:28.384Z,41.8
2023-04-06T10:43:44.577Z,42.1
2023-04-06T10:45:18.000Z,42.8
2023-04-06T10:46:34.000Z,42.5
2023-04-06T10:47:51.000Z,42.4
2023-04-06T10:49:07.348Z,41.5
2023-04-06T10:50:23.541Z,40.3
2023-04-06T10:51:21.734Z,41.3
2023-04-06T10:52:55.000Z,40.7
2023-04-06T10:53:54.120Z,41
2023-04-06T10:55:10.313Z,40.9
2023-04-06T10:56:26.506Z,40.7
2023-04-06T10:58:00.000Z,40.7
2023-04-06T10:58:58.892Z,41.6
2023-04-06T11:00:33.100Z,42
2023-04-06T11:01:49.000Z,41.6
2023-04-06T11:03:05.618Z,42.2
2023-04-06T11:04:21.798Z,40.4
2023-04-06T11:05:37.991Z,40.3
2023-04-06T11:06:54.171Z,40.1
2023-04-06T11:08:10.000Z,40.9
2023-04-06T11:09:08.558Z,42
2023-04-06T11:10:42.766Z,40.7
2023-04-06T11:11:40.945Z,41.1
2023-04-06T11:13:15.160Z,41
2023-04-06T11:14:31.000Z,40.4
2023-04-06T11:15:47.528Z,41.5
2023-04-06T11:17:03.751Z,42.4
2023-04-06T11:18:18.950Z,42
2023-04-06T11:19:17.127Z,41.8
2023-04-06T11:21:16.000Z,41.4
2023-04-06T11:22:07.527Z,42.1
2023-04-06T11:23:23.000Z,41.4
2023-04-06T11:24:21.905Z,40.5
2023-04-06T11:25:56.100Z,41
2023-04-06T11:27:12.000Z,41.9
2023-04-06T11:28:28.488Z,41.4
2023-04-06T11:29:44.682Z,41.4
2023-04-06T11:31:00.000Z,41.6
2023-04-06T11:31:59.071Z,41
2023-04-06T11:33:33.290Z,40.1
2023-04-06T11:34:31.461Z,40.7
2023-04-06T11:36:05.657Z,41.6
2023-04-06T11:37:21.000Z,42
2023-04-06T11:38:38.000Z,42.6
2023-04-06T11:39:54.241Z,42
2023-04-06T11:41:10.448Z,41.9
2023-04-06T11:42:26.000Z,41.7
2023-04-06T11:43:42.000Z,41
2023-04-06T11:44:59.000Z,40.8
2023-04-06T11:46:15.000Z,41.7
2023-04-06T11:47:31.000Z,41.2
2023-04-06T11:48:47.000Z,41.2
2023-04-06T11:50:03.815Z,41.5
2023-04-06T11:51:20.022Z,41.6
2023-04-06T11:52:35.000Z,42.2
2023-04-06T11:53:51.402Z,41.7
2023-04-06T11:54:49.596Z,41.7
2023-04-06T11:56:23.822Z,40.8
2023-04-06T11:57:21.987Z,41.4
2023-04-06T11:58:56.208Z,40.1
2023-04-06T12:00:37.000Z,39.9
2023-04-06T12:01:28.000Z,41.9
2023-04-06T12:02:26.767Z,40.4
2023-04-06T12:04:00.000Z,39.1
2023-04-06T12:05:17.000Z,39.7
2023-04-06T12:06:15.353Z,39.5
2023-04-06T12:07:49.568Z,39.5
2023-04-06T12:09:05.767Z,39.1
2023-04-06T12:10:02.953Z,38.7
2023-04-06T12:11:37.000Z,39.1
2023-04-06T12:12:35.343Z,41.1
2023-04-06T12:14:09.000Z,40.6
2023-04-06T12:15:25.000Z,41.6
2023-04-06T12:16:41.928Z,41
2023-04-06T12:17:58.000Z,40.7
2023-04-06T12:19:14.000Z,40.2
2023-04-06T12:20:12.513Z,38.8
2023-04-06T12:21:46.708Z,39.7
2023-04-06T12:22:44.903Z,40.4
2023-04-06T12:24:19.000Z,39.5
2023-04-06T12:25:35.308Z,38.5
2023-04-06T12:26:51.513Z,38.9
2023-04-06T12:27:49.683Z,39.7
2023-04-06T12:29:22.894Z,40.1
2023-04-06T12:30:39.000Z,41.1
2023-04-06T12:31:55.000Z,40.6
2023-04-06T12:32:53.479Z,40.1
2023-04-06T12:34:27.674Z,40.4
2023-04-06T12:35:25.869Z,40.9
2023-04-06T12:37:00.000Z,39.5
2023-04-06T12:38:16.000Z,39.4
2023-04-06T12:39:32.000Z,40.1
2023-04-06T12:40:30.649Z,41
2023-04-06T12:42:04.000Z,40.4
2023-04-06T12:43:21.000Z,39.5
2023-04-06T12:44:37.252Z,40.9
2023-04-06T12:45:53.000Z,41.4
2023-04-06T12:47:09.000Z,40
2023-04-06T12:48:07.821Z,39
2023-04-06T12:49:42.158Z,38.7
2023-04-06T12:50:40.334Z,38
2023-04-06T12:52:14.548Z,39.2
2023-04-06T12:53:12.725Z,38.4
2023-04-06T12:54:46.000Z,37.4
2023-04-06T12:56:03.000Z,37.6
2023-04-06T12:57:19.000Z,37.7
2023-04-06T12:58:35.000Z,38.9
2023-04-06T12:59:51.000Z,38.8
2023-04-06T13:01:07.000Z,39.4
2023-04-06T13:02:24.000Z,39.7
2023-04-06T13:03:40.299Z,39.3
2023-04-06T13:04:56.000Z,40.1
2023-04-06T13:05:54.678Z,39.7
2023-04-06T13:07:28.892Z,40.3
2023-04-06T13:08:45.000Z,39.7
2023-04-06T13:10:01.000Z,39.7
2023-04-06T13:10:59.460Z,39.7
2023-04-06T13:12:33.667Z,39.6
2023-04-06T13:13:49.851Z,39.8
2023-04-06T13:15:06.000Z,39.4
2023-04-06T13:16:22.261Z,40.4
2023-04-06T13:17:37.000Z,39.3
2023-04-06T13:18:53.660Z,39.1
2023-04-06T13:20:09.843Z,39.7
2023-04-06T13:21:26.038Z,38.6
2023-04-06T13:22:42.259Z,39
2023-04-06T13:23:40.429Z,39.3
2023-04-06T13:25:14.000Z,40
2023-04-06T13:26:30.832Z,40.6
2023-04-06T13:27:47.015Z,39.3
2023-04-06T13:29:03.236Z,39.8
2023-04-06T13:30:19.558Z,39.9
2023-04-06T13:31:17.728Z,40.8
2023-04-06T13:32:51.000Z,40
2023-04-06T13:34:08.000Z,39.5
2023-04-06T13:35:24.338Z,39.4
2023-04-06T13:36:40.522Z,40.5
2023-04-06T13:37:56.721Z,39.2
2023-04-06T13:38:54.899Z,39
2023-04-06T13:40:29.000Z,39.1
2023-04-06T13:41:27.290Z,40
2023-04-06T13:43:01.000Z,40.6
2023-04-06T13:43:59.681Z,40.1
2023-04-06T13:45:33.895Z,40.1
2023-04-06T13:46:49.000Z,39.2
2023-04-06T13:48:05.000Z,39.6
2023-04-06T13:49:21.000Z,40
2023-04-06T13:50:37.688Z,39.3
2023-04-06T13:51:53.883Z,38.1
2023-04-06T13:52:52.065Z,38.3
2023-04-06T13:54:26.000Z,38.5
2023-04-06T13:55:42.000Z,38.2
2023-04-06T13:57:23.000Z,37.5
2023-04-06T13:58:14.862Z,38.1
2023-04-06T13:59:31.000Z,37.6
2023-04-06T14:00:47.250Z,36.7
2023-04-06T14:02:03.000Z,37.7
2023-04-06T14:03:19.000Z,36.7
2023-04-06T14:04:17.820Z,37.5
2023-04-06T14:05:52.000Z,38.3
2023-04-06T14:06:50.209Z,37.6
2023-04-06T14:08:24.426Z,37.1
2023-04-06T14:09:22.599Z,35.9
2023-04-06T14:10:56.813Z,36.6
2023-04-06T14:12:12.000Z,37
2023-04-06T14:13:28.216Z,37.4
2023-04-06T14:14:44.407Z,37.9
2023-04-06T14:16:00.603Z,38.5
2023-04-06T14:17:16.797Z,39.3
2023-04-06T14:18:32.000Z,38.8
2023-04-06T14:19:49.205Z,39.7
2023-04-06T14:21:05.000Z,38.3
2023-04-06T14:22:03.566Z,38
2023-04-06T14:23:37.785Z,38.3
2023-04-06T14:24:53.000Z,38.3
2023-04-06T14:26:10.000Z,39.3
2023-04-06T14:27:08.348Z,37.7
2023-04-06T14:28:24.544Z,38.8
2023-04-06T14:29:58.000Z,39.2
2023-04-06T14:31:14.000Z,39.1
2023-04-06T14:32:13.130Z,40
2023-04-06T14:33:47.000Z,40.7
2023-04-06T14:35:03.000Z,40.1
2023-04-06T14:36:01.838Z,39.3
2023-04-06T14:37:36.033Z,39
2023-04-06T14:38:52.246Z,38.5
2023-04-06T14:39:50.423Z,37.4
2023-04-06T14:41:24.000Z,38.4
2023-04-06T14:42:22.813Z,38.9
2023-04-06T14:43:57.008Z,38.4
2023-04-06T14:44:55.203Z,39.2
2023-04-06T14:46:29.411Z,39.6
2023-04-06T14:47:45.000Z,41.4
2023-04-06T14:49:01.000Z,41.6
2023-04-06T14:50:17.000Z,41.4
2023-04-06T14:51:59.000Z,40.5
2023-04-06T14:52:32.371Z,39.7
2023-04-06T14:54:06.000Z,39.4
2023-04-06T14:55:04.760Z,38.8
2023-04-06T14:56:38.000Z,38.8
2023-04-06T14:57:55.165Z,39
2023-04-06T14:59:10.360Z,39.8
2023-04-06T15:00:26.000Z,38.2
2023-04-06T15:01:42.762Z,37.5
2023-04-06T15:02:58.000Z,36.5
2023-04-06T15:04:15.000Z,36.6
2023-04-06T15:05:31.352Z,34.7
2023-04-06T15:07:12.000Z,34.8
2023-04-06T15:07:45.723Z,34.1
2023-04-06T15:09:19.939Z,34.6
2023-04-06T15:10:18.112Z,35
2023-04-06T15:11:52.000Z,33.9
2023-04-06T15:13:08.513Z,33.9
2023-04-06T15:14:24.710Z,35.1
2023-04-06T15:15:40.000Z,34.9
2023-04-06T15:16:57.098Z,33.5
2023-04-06T15:18:12.312Z,34
2023-04-06T15:19:28.000Z,33.5
2023-04-06T15:20:44.702Z,34.7
2023-04-06T15:22:00.907Z,35.2
2023-04-06T15:23:17.093Z,35.3
2023-04-06T15:24:33.304Z,36
2023-04-06T15:25:31.469Z,36.5
2023-04-06T15:27:05.000Z,36.8
2023-04-06T15:28:21.000Z,37.5
2023-04-06T15:29:38.000Z,36.2
2023-04-06T15:30:54.250Z,37
2023-04-06T15:32:10.459Z,36.6
2023-04-06T15:33:08.641Z,35.5
2023-04-06T15:34:41.000Z,34.5
2023-04-06T15:35:40.048Z,35.2
2023-04-06T15:37:14.000Z,34.9
2023-04-06T15:38:30.456Z,34.5
2023-04-06T15:39:46.000Z,34.9
2023-04-06T15:41:02.000Z,34.5
2023-04-06T15:42:19.000Z,34.7
2023-04-06T15:43:35.235Z,32.7
2023-04-06T15:44:51.436Z,32.1
2023-04-06T15:45:49.609Z,32.2
2023-04-06T15:47:23.000Z,32.9
2023-04-06T15:48:21.998Z,32.5
2023-04-06T15:49:56.194Z,32.8
2023-04-06T15:50:54.388Z,33.3
2023-04-06T15:52:28.000Z,33.8
2023-04-06T15:53:44.000Z,32.4
2023-04-06T15:55:00.995Z,32.8
2023-04-06T15:56:16.000Z,31.2
2023-04-06T15:57:32.000Z,31.6
2023-04-06T15:58:48.588Z,31.4
2023-04-06T16:00:04.769Z,31.1
2023-04-06T16:01:20.977Z,31.8
2023-04-06T16:02:37.158Z,30.1
2023-04-06T16:03:53.372Z,30.1
2023-04-06T16:05:09.000Z,30
2023-04-06T16:06:25.000Z,30.7
2023-04-06T16:07:41.969Z,30.7
2023-04-06T16:08:58.149Z,31.3
2023-04-06T16:10:14.000Z,31.6
2023-04-06T16:11:12.524Z,31.7
2023-04-06T16:12:46.719Z,31.7
2023-04-06T16:13:44.914Z,31
2023-04-06T16:15:18.000Z,30.9
2023-04-06T16:16:34.338Z,30.7
2023-04-06T16:17:50.532Z,30.1
2023-04-06T16:19:06.000Z,30.1
2023-04-06T16:20:22.000Z,30.6
2023-04-06T16:21:21.102Z,29.9
2023-04-06T16:22:55.000Z,29.4
2023-04-06T16:24:11.506Z,29
2023-04-06T16:25:09.688Z,29.1
2023-04-06T16:26:25.883Z,29.3
2023-04-06T16:28:00.000Z,30.3
2023-04-06T16:28:58.273Z,30.7
2023-04-06T16:30:14.469Z,31.4
2023-04-06T16:31:47.000Z,31.7
2023-04-06T16:32:45.877Z,31.5
2023-04-06T16:34:20.000Z,31.7
2023-04-06T16:35:36.267Z,30.6
2023-04-06T16:36:52.478Z,31.1
2023-04-06T16:38:08.676Z,31.1
2023-04-06T16:39:24.878Z,31.6
2023-04-06T16:40:41.000Z,31.4
2023-04-06T16:41:57.254Z,30.6
2023-04-06T16:43:13.000Z,30.6
2023-04-06T16:44:29.000Z,30.4
2023-04-06T16:46:10.000Z,31.3
2023-04-06T16:47:02.053Z,31.4
2023-04-06T16:48:17.258Z,30.7
2023-04-06T16:49:33.458Z,31.6
2023-04-06T16:50:49.000Z,31.9
2023-04-06T16:51:47.823Z,31.5
2023-04-06T16:53:22.046Z,32.2
2023-04-06T16:54:38.226Z,32.2
2023-04-06T16:55:54.000Z,32.2
2023-04-06T16:57:10.000Z,32.9
2023-04-06T16:58:26.817Z,32.7
2023-04-06T16:59:43.016Z,31.9